Time;durP1;ratioP1;P1;durP2;ratioP2;P2;SDS_P1;SDS_P2;PMS_P1;PMS_P2;Temp;Humidity;BMP_temperature;BMP_pressure;BME280_temperature;BME280_humidity;BME280_pressure;Samples;Min_cycle;Max_cycle;Signal;HPM_P1;HPM_P2
2021/08/05 00:01:47;;;;;;;16.83;13.35;;;14.70;99.90;;;;;;4972585;28;20113;-61
2021/08/05 00:04:12;;;;;;;18.13;14.10;;;14.80;99.90;;;;;;4972862;28;20114;-61
2021/08/05 00:06:38;;;;;;;14.95;11.82;;;14.80;99.90;;;;;;4973510;28;20030;-61
2021/08/05 00:09:04;;;;;;;19.70;15.50;;;14.80;99.90;;;;;;4973227;28;20404;-61
2021/08/05 00:11:30;;;;;;;18.95;15.00;;;14.80;99.90;;;;;;4973345;28;20042;-60
2021/08/05 00:13:55;;;;;;;15.38;13.68;;;14.80;99.90;;;;;;4973197;28;20030;-60
2021/08/05 00:16:22;;;;;;;16.38;13.18;;;14.70;99.90;;;;;;4973663;28;20038;-60
2021/08/05 00:18:48;;;;;;;16.63;12.98;;;14.70;99.90;;;;;;4966157;28;20513;-58
2021/08/05 00:21:16;;;;;;;16.17;13.38;;;14.80;99.90;;;;;;4965372;28;20037;-60
2021/08/05 00:23:42;;;;;;;19.05;13.65;;;14.70;99.90;;;;;;4973167;28;20130;-61
2021/08/05 00:26:07;;;;;;;17.08;13.43;;;14.70;99.90;;;;;;4973487;28;20098;-61
2021/08/05 00:28:33;;;;;;;19.92;13.13;;;14.70;99.90;;;;;;4973276;28;20046;-61
2021/08/05 00:30:59;;;;;;;17.17;13.00;;;14.70;99.90;;;;;;4959489;28;20035;-61
2021/08/05 00:33:25;;;;;;;15.02;13.43;;;14.80;99.90;;;;;;4960637;28;20035;-61
2021/08/05 00:35:50;;;;;;;17.63;13.90;;;14.80;99.90;;;;;;4961977;28;20077;-60
2021/08/05 00:38:16;;;;;;;16.73;12.85;;;14.80;99.90;;;;;;4966201;28;20532;-61
2021/08/05 00:40:42;;;;;;;15.90;13.45;;;14.80;99.90;;;;;;4960986;28;20408;-59
2021/08/05 00:43:08;;;;;;;16.67;14.48;;;14.80;99.90;;;;;;4960802;28;20066;-61
2021/08/05 00:45:34;;;;;;;15.25;13.60;;;14.80;99.90;;;;;;4962821;28;20054;-61
2021/08/05 00:47:59;;;;;;;15.02;12.82;;;14.80;99.90;;;;;;4970099;28;20550;-61
2021/08/05 00:50:25;;;;;;;16.98;13.88;;;14.80;99.90;;;;;;4958480;28;20532;-61
2021/08/05 00:52:51;;;;;;;14.40;12.77;;;14.80;99.90;;;;;;4965191;28;20393;-61
2021/08/05 00:55:18;;;;;;;17.20;13.00;;;14.80;99.90;;;;;;4959752;28;20035;-61
2021/08/05 00:57:44;;;;;;;15.55;13.52;;;14.80;99.90;;;;;;4968219;28;20030;-61
2021/08/05 01:00:11;;;;;;;17.65;14.07;;;14.80;99.90;;;;;;4963931;28;20032;-61
2021/08/05 01:02:41;;;;;;;19.20;14.27;;;14.90;99.90;;;;;;4963025;28;20019;-61
2021/08/05 01:05:07;;;;;;;18.80;13.70;;;14.90;99.90;;;;;;4964476;28;20054;-61
2021/08/05 01:07:59;;;;;;;15.70;13.52;;;14.90;99.90;;;;;;4960246;28;20027;-60
2021/08/05 01:10:44;;;;;;;22.75;15.05;;;14.90;99.90;;;;;;4956945;28;20027;-60
2021/08/05 01:13:09;;;;;;;17.40;14.07;;;14.80;99.90;;;;;;4966522;28;20026;-60
2021/08/05 01:15:36;;;;;;;20.05;13.57;;;14.80;99.90;;;;;;4963538;28;20035;-59
2021/08/05 01:18:07;;;;;;;17.20;14.20;;;14.80;99.90;;;;;;4958286;28;20596;-58
2021/08/05 01:20:33;;;;;;;14.70;12.80;;;14.80;99.90;;;;;;4962343;28;20035;-60
2021/08/05 01:23:30;;;;;;;17.25;12.65;;;14.80;99.90;;;;;;4974467;28;20034;-60
2021/08/05 01:26:11;;;;;;;14.50;12.77;;;14.80;99.90;;;;;;4960561;28;20437;-59
2021/08/05 01:28:39;;;;;;;15.70;12.73;;;14.80;99.90;;;;;;4962987;28;20039;-60
2021/08/05 01:31:06;;;;;;;14.57;13.00;;;14.80;99.90;;;;;;4959094;28;20439;-60
2021/08/05 01:33:32;;;;;;;29.45;12.48;;;14.80;99.90;;;;;;4960003;28;20035;-60
2021/08/05 01:35:58;;;;;;;15.48;12.18;;;14.70;99.90;;;;;;4965086;28;20035;-60
2021/08/05 01:38:25;;;;;;;17.00;12.80;;;14.80;99.90;;;;;;4966229;28;20032;-58
2021/08/05 01:40:52;;;;;;;14.38;12.73;;;14.80;99.90;;;;;;4963649;28;20065;-59
2021/08/05 01:43:19;;;;;;;18.05;13.70;;;14.80;99.90;;;;;;4963426;28;20026;-60
2021/08/05 01:45:46;;;;;;;19.48;13.18;;;14.70;99.90;;;;;;4971011;28;20110;-58
2021/08/05 01:48:13;;;;;;;18.05;11.85;;;14.80;99.90;;;;;;4971454;28;20035;-58
2021/08/05 01:50:42;;;;;;;14.85;12.73;;;14.80;99.90;;;;;;4973080;28;20158;-60
2021/08/05 01:53:07;;;;;;;17.15;12.63;;;14.70;99.90;;;;;;4975365;28;20041;-60
2021/08/05 01:55:33;;;;;;;14.75;12.32;;;14.70;99.90;;;;;;4971487;28;20031;-60
2021/08/05 01:57:59;;;;;;;14.57;13.07;;;14.70;99.90;;;;;;4971685;28;20034;-59
2021/08/05 02:00:25;;;;;;;15.82;13.43;;;14.70;99.90;;;;;;4971074;28;20073;-60
2021/08/05 02:02:53;;;;;;;21.80;14.15;;;14.70;99.90;;;;;;4974075;28;20374;-58
2021/08/05 02:05:44;;;;;;;15.60;13.15;;;14.70;99.90;;;;;;4970539;28;20031;-59
2021/08/05 02:08:14;;;;;;;18.70;13.18;;;14.60;99.90;;;;;;4966450;28;20110;-59
2021/08/05 02:10:43;;;;;;;20.10;14.77;;;14.60;99.90;;;;;;4972742;28;20122;-59
2021/08/05 02:13:19;;;;;;;15.15;13.00;;;14.60;99.90;;;;;;4964235;28;20409;-61
2021/08/05 02:15:58;;;;;;;15.82;12.05;;;14.50;99.90;;;;;;4961987;28;20121;-60
2021/08/05 02:18:28;;;;;;;19.52;12.57;;;14.50;99.90;;;;;;4964517;28;21464;-59
2021/08/05 02:20:55;;;;;;;17.45;13.25;;;14.40;99.90;;;;;;4967388;28;20118;-60
2021/08/05 02:23:22;;;;;;;16.20;12.48;;;14.40;99.90;;;;;;4971649;28;20114;-60
2021/08/05 02:25:49;;;;;;;19.08;13.35;;;14.40;99.90;;;;;;4971056;28;20035;-59
2021/08/05 02:28:16;;;;;;;14.93;12.75;;;14.30;99.90;;;;;;4971001;28;20031;-60
2021/08/05 02:30:42;;;;;;;15.38;12.60;;;14.30;99.90;;;;;;4970886;28;20470;-60
2021/08/05 02:33:09;;;;;;;17.02;12.70;;;14.30;99.90;;;;;;4973273;28;20031;-60
2021/08/05 02:35:36;;;;;;;15.73;11.80;;;14.20;99.90;;;;;;4971104;28;20058;-59
2021/08/05 02:38:03;;;;;;;20.92;12.80;;;14.20;99.90;;;;;;4959581;28;20074;-60
2021/08/05 02:40:31;;;;;;;16.88;12.68;;;14.20;99.90;;;;;;4967461;28;20031;-60
2021/08/05 02:42:59;;;;;;;15.77;12.80;;;14.20;99.90;;;;;;4971378;28;20097;-60
2021/08/05 02:45:25;;;;;;;19.20;15.63;;;14.20;99.90;;;;;;4970627;28;20556;-59
2021/08/05 02:47:51;;;;;;;18.25;13.15;;;14.10;99.90;;;;;;4968625;28;20122;-60
2021/08/05 02:50:17;;;;;;;16.75;12.10;;;14.20;99.90;;;;;;4962475;28;20014;-60
2021/08/05 02:52:43;;;;;;;16.27;13.68;;;14.10;99.90;;;;;;4970897;28;20117;-60
2021/08/05 02:55:10;;;;;;;15.60;13.07;;;14.10;99.90;;;;;;4966664;28;20039;-60
2021/08/05 02:57:37;;;;;;;19.88;13.25;;;14.10;99.90;;;;;;4961747;28;20051;-60
2021/08/05 03:00:05;;;;;;;15.07;12.60;;;14.10;99.90;;;;;;4974385;28;20015;-61
2021/08/05 03:02:30;;;;;;;17.27;13.27;;;14.10;99.90;;;;;;4966400;28;20019;-61
2021/08/05 03:04:56;;;;;;;17.90;13.73;;;14.10;99.90;;;;;;4968106;28;20035;-61
2021/08/05 03:07:22;;;;;;;18.23;13.15;;;14.00;99.90;;;;;;4962419;28;20049;-60
2021/08/05 03:09:47;;;;;;;16.08;12.90;;;14.00;99.90;;;;;;4965314;28;20093;-61
2021/08/05 03:12:13;;;;;;;16.92;13.38;;;14.00;99.90;;;;;;4969958;28;20966;-61
2021/08/05 03:14:38;;;;;;;16.17;12.65;;;13.90;99.90;;;;;;4965022;28;20464;-61
2021/08/05 03:17:04;;;;;;;14.00;11.55;;;13.90;99.90;;;;;;4971301;28;20041;-60
2021/08/05 03:19:30;;;;;;;15.13;13.13;;;13.80;99.90;;;;;;4970864;28;20031;-63
2021/08/05 03:21:56;;;;;;;13.88;12.18;;;13.80;99.90;;;;;;4968707;28;20047;-61
2021/08/05 03:24:21;;;;;;;19.23;14.40;;;13.80;99.90;;;;;;4969155;28;20514;-61
2021/08/05 03:26:47;;;;;;;18.75;13.32;;;13.80;99.90;;;;;;4965627;28;20035;-60
2021/08/05 03:29:12;;;;;;;19.20;13.63;;;13.80;99.90;;;;;;4976000;28;20054;-55
2021/08/05 03:31:38;;;;;;;19.95;13.75;;;13.90;99.90;;;;;;4967476;28;20034;-61
2021/08/05 03:34:03;;;;;;;18.25;13.48;;;14.00;99.90;;;;;;4973871;28;20035;-60
2021/08/05 03:36:29;;;;;;;17.02;13.05;;;14.00;99.90;;;;;;4967097;28;20484;-60
2021/08/05 03:38:54;;;;;;;16.05;11.85;;;13.90;99.90;;;;;;4969593;28;20097;-61
2021/08/05 03:41:20;;;;;;;13.85;12.43;;;14.00;99.90;;;;;;4971217;28;20035;-58
2021/08/05 03:43:46;;;;;;;15.85;12.70;;;13.90;99.90;;;;;;4989311;28;20053;-61
2021/08/05 03:46:11;;;;;;;17.08;12.20;;;13.90;99.90;;;;;;4966915;28;20508;-61
2021/08/05 03:48:37;;;;;;;14.88;13.27;;;13.90;99.90;;;;;;4973355;28;20031;-60
2021/08/05 03:51:05;;;;;;;17.08;12.57;;;13.90;99.90;;;;;;4967419;28;20031;-61
2021/08/05 03:53:33;;;;;;;15.10;12.07;;;13.90;99.90;;;;;;4970947;28;20069;-60
2021/08/05 03:55:59;;;;;;;15.10;12.63;;;13.90;99.90;;;;;;4967074;28;20237;-60
2021/08/05 03:58:25;;;;;;;15.68;12.48;;;13.90;99.90;;;;;;4969945;28;20127;-59
2021/08/05 04:00:50;;;;;;;17.65;12.95;;;13.90;99.90;;;;;;4975785;28;20035;-60
2021/08/05 04:03:16;;;;;;;19.58;12.90;;;13.90;99.90;;;;;;4973887;28;20110;-61
2021/08/05 04:05:41;;;;;;;15.15;11.65;;;13.90;99.90;;;;;;4970406;28;20035;-61
2021/08/05 04:08:07;;;;;;;18.00;11.77;;;13.90;99.90;;;;;;4973792;28;20018;-60
2021/08/05 04:10:33;;;;;;;13.23;11.80;;;13.90;99.90;;;;;;4975085;28;20031;-59
2021/08/05 04:12:58;;;;;;;15.55;12.15;;;13.90;99.90;;;;;;4972463;28;20485;-61
2021/08/05 04:15:24;;;;;;;14.45;12.23;;;14.00;99.90;;;;;;4973055;28;20027;-60
2021/08/05 04:17:50;;;;;;;12.75;11.45;;;14.00;99.90;;;;;;4974739;28;20025;-61
2021/08/05 04:20:17;;;;;;;19.27;11.82;;;14.00;99.90;;;;;;4971773;28;20034;-61
2021/08/05 04:22:42;;;;;;;17.23;11.52;;;14.00;99.90;;;;;;4974783;28;20026;-61
2021/08/05 04:25:09;;;;;;;20.80;11.02;;;14.00;99.90;;;;;;4972922;28;20035;-60
2021/08/05 04:27:39;;;;;;;12.50;10.77;;;14.00;99.90;;;;;;4985759;28;20106;-61
2021/08/05 04:30:11;;;;;;;14.20;10.20;;;14.00;99.90;;;;;;4974159;28;20027;-61
2021/08/05 04:32:37;;;;;;;13.63;11.45;;;14.00;99.90;;;;;;4973840;28;20030;-61
2021/08/05 04:35:04;;;;;;;12.55;10.55;;;14.00;99.90;;;;;;4974381;28;20069;-60
2021/08/05 04:37:30;;;;;;;13.68;11.77;;;14.00;99.90;;;;;;4970928;28;20539;-61
2021/08/05 04:39:55;;;;;;;14.70;10.60;;;14.10;99.90;;;;;;4969738;28;20038;-61
2021/08/05 04:42:21;;;;;;;15.25;10.68;;;14.10;99.90;;;;;;4975118;28;20035;-61
2021/08/05 04:44:46;;;;;;;11.77;9.98;;;14.10;99.90;;;;;;4971419;28;20046;-61
2021/08/05 04:47:12;;;;;;;10.27;9.23;;;14.20;99.90;;;;;;4969312;28;20520;-61
2021/08/05 04:49:37;;;;;;;12.00;10.63;;;14.30;99.90;;;;;;4971749;28;20396;-61
2021/08/05 04:52:05;;;;;;;12.23;8.95;;;14.40;99.90;;;;;;4966024;28;20620;-60
2021/08/05 04:54:30;;;;;;;10.45;9.23;;;14.40;99.90;;;;;;4972218;28;20105;-61
2021/08/05 04:56:56;;;;;;;10.38;9.27;;;14.50;99.90;;;;;;4974299;28;20527;-60
2021/08/05 04:59:21;;;;;;;12.27;10.07;;;14.60;99.90;;;;;;4970067;28;20664;-61
2021/08/05 05:01:47;;;;;;;10.80;8.85;;;14.70;99.90;;;;;;4976423;28;20461;-61
2021/08/05 05:04:13;;;;;;;12.65;9.43;;;14.80;99.90;;;;;;4972157;28;20106;-61
2021/08/05 05:06:39;;;;;;;10.90;9.45;;;14.90;99.90;;;;;;4970951;28;20102;-61
2021/08/05 05:09:05;;;;;;;12.18;9.93;;;14.90;99.90;;;;;;4974139;28;20023;-61
2021/08/05 05:11:31;;;;;;;10.93;8.75;;;15.00;99.90;;;;;;4971995;28;20042;-61
2021/08/05 05:13:57;;;;;;;11.35;8.07;;;15.10;99.90;;;;;;4971139;28;20496;-58
2021/08/05 05:16:22;;;;;;;10.02;8.63;;;15.20;99.90;;;;;;4969969;28;20062;-59
2021/08/05 05:18:48;;;;;;;14.10;8.77;;;15.30;99.90;;;;;;4968602;28;20043;-61
2021/08/05 05:21:14;;;;;;;12.10;8.25;;;15.50;99.90;;;;;;4969523;28;20030;-61
2021/08/05 05:23:40;;;;;;;10.90;8.05;;;15.70;99.90;;;;;;4972643;28;20038;-61
2021/08/05 05:26:06;;;;;;;11.85;8.18;;;16.00;99.90;;;;;;4967072;28;20523;-61
2021/08/05 05:28:32;;;;;;;8.75;7.32;;;16.30;99.90;;;;;;4969981;28;20485;-60
2021/08/05 05:30:59;;;;;;;7.88;6.80;;;16.80;99.90;;;;;;4970839;28;20037;-61
2021/08/05 05:33:25;;;;;;;7.63;6.15;;;17.10;99.90;;;;;;4972276;28;20126;-61
2021/08/05 05:35:51;;;;;;;7.28;5.45;;;17.30;99.90;;;;;;4976296;28;20103;-61
2021/08/05 05:38:19;;;;;;;9.32;5.97;;;17.60;99.90;;;;;;4967354;28;20054;-62
2021/08/05 05:40:45;;;;;;;7.13;5.78;;;17.80;99.90;;;;;;4970992;28;20031;-62
2021/08/05 05:43:11;;;;;;;7.53;6.03;;;18.40;99.90;;;;;;4973618;28;20718;-60
2021/08/05 05:45:38;;;;;;;6.00;5.25;;;19.20;99.90;;;;;;4969767;28;20509;-61
2021/08/05 05:48:04;;;;;;;7.07;5.18;;;19.70;99.90;;;;;;4969525;28;20056;-62
2021/08/05 05:50:31;;;;;;;5.10;4.50;;;20.00;99.90;;;;;;4971985;28;20050;-62
2021/08/05 05:52:58;;;;;;;6.95;4.90;;;20.40;99.90;;;;;;4977846;28;20511;-62
2021/08/05 05:55:24;;;;;;;6.88;5.60;;;19.90;99.90;;;;;;4971582;28;20366;-61
2021/08/05 05:57:50;;;;;;;6.18;5.55;;;19.70;99.90;;;;;;4973307;28;20481;-61
2021/08/05 06:00:16;;;;;;;10.25;6.10;;;19.40;99.90;;;;;;4971269;28;20025;-62
2021/08/05 06:02:42;;;;;;;8.98;5.53;;;19.10;99.90;;;;;;4969700;28;20116;-62
2021/08/05 06:05:09;;;;;;;8.10;5.65;;;18.40;99.90;;;;;;4971826;28;20074;-62
2021/08/05 06:07:43;;;;;;;9.50;6.28;;;18.30;99.90;;;;;;4969986;28;20030;-61
2021/08/05 06:10:10;;;;;;;7.22;6.32;;;17.90;99.90;;;;;;4970096;28;20437;-61
2021/08/05 06:12:35;;;;;;;10.32;6.25;;;17.80;99.90;;;;;;4972284;28;20393;-61
2021/08/05 06:15:01;;;;;;;10.20;6.88;;;17.80;99.90;;;;;;4969085;28;20049;-61
2021/08/05 06:17:26;;;;;;;9.73;7.05;;;17.80;99.90;;;;;;4968441;28;20042;-62
2021/08/05 06:19:53;;;;;;;10.77;7.70;;;17.90;99.90;;;;;;4972729;28;20093;-61
2021/08/05 06:22:19;;;;;;;8.23;7.38;;;17.80;99.90;;;;;;4971729;28;20053;-61
2021/08/05 06:24:44;;;;;;;9.30;7.55;;;17.80;99.90;;;;;;4969586;28;20070;-61
2021/08/05 06:27:10;;;;;;;8.25;6.97;;;17.90;99.90;;;;;;4968223;28;20054;-61
2021/08/05 06:29:35;;;;;;;8.95;6.93;;;18.10;99.90;;;;;;4968121;28;20085;-61
2021/08/05 06:32:01;;;;;;;7.63;6.68;;;18.20;99.90;;;;;;4970346;28;20034;-61
2021/08/05 06:34:26;;;;;;;8.90;6.60;;;18.40;99.90;;;;;;4969347;28;20113;-61
2021/08/05 06:36:52;;;;;;;8.93;6.28;;;18.70;99.90;;;;;;4974522;28;20093;-61
2021/08/05 06:39:18;;;;;;;6.50;5.70;;;19.20;99.90;;;;;;4971249;28;20097;-62
2021/08/05 06:41:44;;;;;;;8.55;6.15;;;19.60;99.90;;;;;;4967221;28;20085;-61
2021/08/05 06:44:09;;;;;;;7.35;6.00;;;19.80;99.90;;;;;;4973698;28;20080;-61
2021/08/05 06:46:36;;;;;;;8.55;6.20;;;19.90;99.90;;;;;;4970731;28;20085;-59
2021/08/05 06:49:02;;;;;;;8.85;6.88;;;20.00;99.90;;;;;;4968937;28;20102;-62
2021/08/05 06:51:27;;;;;;;10.25;6.43;;;19.90;99.90;;;;;;4970791;28;20134;-62
2021/08/05 06:53:53;;;;;;;10.38;7.20;;;20.10;99.90;;;;;;4964230;28;20038;-61
2021/08/05 06:56:18;;;;;;;7.65;6.60;;;20.40;99.90;;;;;;4970057;28;20026;-61
2021/08/05 06:58:44;;;;;;;13.23;7.80;;;20.80;99.90;;;;;;4969940;28;20109;-61
2021/08/05 07:01:10;;;;;;;8.38;6.55;;;21.00;99.90;;;;;;4887719;28;20058;-61
2021/08/05 07:03:36;;;;;;;8.95;6.63;;;21.60;99.90;;;;;;4969763;28;20388;-61
2021/08/05 07:06:01;;;;;;;7.63;6.22;;;22.60;99.90;;;;;;4972017;28;20614;-61
2021/08/05 07:08:27;;;;;;;10.77;7.65;;;22.90;99.90;;;;;;4969895;28;20046;-61
2021/08/05 07:10:53;;;;;;;9.50;7.47;;;23.00;99.90;;;;;;4970215;28;20034;-62
2021/08/05 07:13:18;;;;;;;8.43;6.82;;;23.20;99.90;;;;;;4968260;28;20060;-62
2021/08/05 07:15:44;;;;;;;10.55;8.07;;;23.50;99.90;;;;;;4978622;28;20117;-59
2021/08/05 07:18:09;;;;;;;10.05;7.32;;;23.30;99.60;;;;;;4968877;28;20390;-62
2021/08/05 07:20:35;;;;;;;8.82;6.93;;;22.60;99.90;;;;;;4966081;28;20035;-58
2021/08/05 07:23:00;;;;;;;8.98;7.65;;;22.60;99.90;;;;;;4969584;28;20035;-60
2021/08/05 07:25:26;;;;;;;9.13;7.07;;;22.60;99.90;;;;;;4968583;28;20035;-62
2021/08/05 07:27:52;;;;;;;8.45;7.45;;;22.10;99.90;;;;;;4969504;28;20779;-62
2021/08/05 07:30:18;;;;;;;13.88;8.40;;;21.70;99.90;;;;;;4966334;28;20030;-61
2021/08/05 07:32:44;;;;;;;10.40;8.57;;;21.40;99.90;;;;;;4969210;28;20053;-62
2021/08/05 07:35:11;;;;;;;12.27;7.28;;;21.70;99.90;;;;;;4974047;28;20031;-62
2021/08/05 07:37:37;;;;;;;11.02;8.00;;;22.00;99.90;;;;;;4981891;28;20544;-62
2021/08/05 07:40:04;;;;;;;9.57;7.20;;;22.10;99.90;;;;;;4972877;28;20027;-62
2021/08/05 07:42:29;;;;;;;8.07;6.22;;;22.20;99.90;;;;;;4969425;28;20034;-61
2021/08/05 07:44:55;;;;;;;7.60;6.50;;;22.70;99.90;;;;;;4973500;28;20026;-60
2021/08/05 07:47:21;;;;;;;9.43;6.65;;;23.10;99.90;;;;;;4970861;28;20106;-60
2021/08/05 07:49:46;;;;;;;7.20;6.50;;;23.20;99.90;;;;;;4972289;28;20019;-60
2021/08/05 07:52:12;;;;;;;11.65;7.15;;;23.30;99.90;;;;;;4976117;28;20109;-62
2021/08/05 07:54:38;;;;;;;8.75;6.95;;;22.80;99.90;;;;;;4971604;28;20026;-61
2021/08/05 07:57:04;;;;;;;8.57;7.45;;;22.20;99.90;;;;;;4971780;28;20105;-62
2021/08/05 07:59:30;;;;;;;12.20;7.10;;;22.00;99.90;;;;;;4974105;28;20034;-62
2021/08/05 08:01:56;;;;;;;7.72;6.90;;;21.80;99.90;;;;;;4952511;28;20046;-61
2021/08/05 08:04:22;;;;;;;13.60;7.85;;;21.90;99.90;;;;;;4970621;28;20118;-62
2021/08/05 08:06:47;;;;;;;9.93;7.68;;;21.90;99.90;;;;;;4974268;28;20027;-62
2021/08/05 08:09:13;;;;;;;12.93;8.05;;;21.80;99.90;;;;;;4969159;28;20026;-62
2021/08/05 08:11:38;;;;;;;13.93;9.20;;;21.90;99.90;;;;;;4973549;28;20019;-61
2021/08/05 08:14:04;;;;;;;10.13;8.25;;;21.70;99.90;;;;;;4971439;28;20035;-60
2021/08/05 08:16:29;;;;;;;10.27;8.20;;;21.60;99.90;;;;;;4975025;28;20488;-61
2021/08/05 08:18:55;;;;;;;13.50;8.30;;;21.80;99.90;;;;;;4972014;28;20038;-62
2021/08/05 08:21:21;;;;;;;11.35;6.35;;;21.90;99.90;;;;;;4971166;28;20027;-62
2021/08/05 08:23:47;;;;;;;9.02;7.25;;;22.10;99.90;;;;;;4972173;28;20484;-62
2021/08/05 08:26:14;;;;;;;9.32;7.03;;;22.10;99.90;;;;;;4977833;28;20050;-61
2021/08/05 08:28:39;;;;;;;9.10;7.10;;;22.10;99.90;;;;;;4969763;28;20080;-61
2021/08/05 08:31:05;;;;;;;9.27;6.95;;;21.80;99.90;;;;;;4971397;28;20469;-61
2021/08/05 08:33:31;;;;;;;10.00;8.30;;;22.30;99.90;;;;;;4972682;28;20057;-61
2021/08/05 08:35:57;;;;;;;10.40;7.57;;;22.10;99.90;;;;;;4971503;28;20062;-61
2021/08/05 08:38:24;;;;;;;14.30;8.15;;;22.10;99.90;;;;;;4971320;28;20485;-61
2021/08/05 08:40:51;;;;;;;8.48;7.63;;;22.20;99.90;;;;;;4972677;28;20027;-61
2021/08/05 08:43:17;;;;;;;11.65;9.05;;;22.00;99.90;;;;;;4973440;28;20086;-60
2021/08/05 08:45:44;;;;;;;10.00;7.53;;;22.00;99.90;;;;;;4971976;28;20026;-61
2021/08/05 08:48:12;;;;;;;11.27;8.82;;;22.10;99.90;;;;;;4970295;28;20378;-61
2021/08/05 08:50:39;;;;;;;10.95;8.27;;;22.00;99.90;;;;;;4969185;28;20031;-61
2021/08/05 08:53:08;;;;;;;13.50;7.13;;;22.10;99.90;;;;;;4973321;28;20073;-62
2021/08/05 08:55:35;;;;;;;10.55;7.25;;;22.20;99.90;;;;;;4972872;28;20019;-61
2021/08/05 08:58:02;;;;;;;11.43;7.47;;;22.10;99.90;;;;;;4969576;28;20103;-62
2021/08/05 09:00:30;;;;;;;8.40;7.35;;;22.10;99.90;;;;;;4954772;28;20051;-61
2021/08/05 09:02:57;;;;;;;13.57;8.00;;;22.60;99.90;;;;;;4966919;28;20520;-61
2021/08/05 09:05:25;;;;;;;11.70;8.02;;;22.50;99.90;;;;;;4971043;28;20034;-61
2021/08/05 09:07:51;;;;;;;10.68;7.53;;;22.30;99.90;;;;;;4972025;28;20500;-61
2021/08/05 09:10:17;;;;;;;8.65;6.95;;;22.30;99.90;;;;;;4976754;28;20448;-61
2021/08/05 09:12:44;;;;;;;7.38;6.03;;;22.50;99.90;;;;;;4974340;28;20031;-61
2021/08/05 09:15:10;;;;;;;8.20;6.55;;;22.70;99.90;;;;;;4964956;28;20035;-62
2021/08/05 09:17:41;;;;;;;8.73;6.97;;;23.20;99.90;;;;;;4969300;28;20455;-62
2021/08/05 09:20:12;;;;;;;8.45;6.85;;;23.20;99.90;;;;;;4971523;28;20039;-61
2021/08/05 09:22:42;;;;;;;9.55;7.22;;;23.20;99.90;;;;;;4970849;28;20022;-59
2021/08/05 09:25:23;;;;;;;8.82;7.15;;;23.10;99.90;;;;;;4973554;28;20569;-62
2021/08/05 09:27:51;;;;;;;9.10;7.47;;;23.00;99.90;;;;;;4968379;28;20103;-61
2021/08/05 09:30:30;;;;;;;8.73;6.68;;;22.90;99.90;;;;;;4971173;28;20073;-61
2021/08/05 09:33:09;;;;;;;7.40;6.68;;;23.00;99.90;;;;;;4960902;28;20081;-62
2021/08/05 09:35:36;;;;;;;8.23;5.70;;;23.10;99.90;;;;;;4971687;28;20042;-61
2021/08/05 09:38:26;;;;;;;9.18;6.20;;;23.30;99.90;;;;;;4971569;28;20138;-61
2021/08/05 09:41:03;;;;;;;6.40;4.93;;;24.10;98.80;;;;;;4971638;28;20106;-62
2021/08/05 09:43:29;;;;;;;5.85;4.60;;;25.30;97.80;;;;;;4969999;28;20082;-62
2021/08/05 09:45:56;;;;;;;7.40;4.55;;;25.90;97.20;;;;;;4971938;28;20051;-62
2021/08/05 09:48:42;;;;;;;4.72;3.75;;;27.00;95.70;;;;;;4970154;28;20393;-61
2021/08/05 09:51:18;;;;;;;6.40;4.32;;;28.50;93.00;;;;;;4969851;28;20046;-62
2021/08/05 09:54:13;;;;;;;6.32;4.88;;;29.00;91.20;;;;;;4969493;28;20019;-62
2021/08/05 09:56:39;;;;;;;4.82;4.30;;;28.30;91.90;;;;;;4967418;28;20023;-62
2021/08/05 09:59:12;;;;;;;3.97;3.00;;;28.10;90.70;;;;;;4967179;28;20040;-63
2021/08/05 10:02:06;;;;;;;3.97;3.58;;;29.00;88.80;;;;;;4955396;28;20120;-64
2021/08/05 10:04:33;;;;;;;4.28;3.35;;;29.30;86.10;;;;;;4968627;28;20031;-63
2021/08/05 10:07:04;;;;;;;3.33;3.03;;;28.60;85.40;;;;;;4970474;28;20073;-62
2021/08/05 10:09:31;;;;;;;2.67;2.40;;;28.10;87.80;;;;;;4969396;28;20349;-63
2021/08/05 10:12:12;;;;;;;5.07;2.65;;;27.60;86.70;;;;;;4971662;28;20030;-62
2021/08/05 10:14:39;;;;;;;7.78;2.83;;;27.70;86.30;;;;;;4971345;28;20022;-61
2021/08/05 10:17:06;;;;;;;2.55;2.25;;;27.40;87.60;;;;;;4971176;28;20504;-62
2021/08/05 10:19:38;;;;;;;4.47;1.90;;;27.10;87.40;;;;;;4971811;28;20042;-63
2021/08/05 10:22:05;;;;;;;6.15;3.60;;;27.00;87.30;;;;;;4971930;28;20038;-62
2021/08/05 10:24:33;;;;;;;5.95;2.67;;;27.70;86.10;;;;;;4972159;28;20055;-62
2021/08/05 10:26:59;;;;;;;4.93;2.72;;;27.80;86.10;;;;;;4972618;28;20539;-62
2021/08/05 10:29:24;;;;;;;4.22;2.70;;;28.00;84.80;;;;;;4970919;28;20054;-61
2021/08/05 10:31:50;;;;;;;3.53;2.20;;;28.20;85.50;;;;;;4972042;28;20050;-61
2021/08/05 10:34:17;;;;;;;2.50;2.00;;;28.20;84.60;;;;;;4970173;28;20038;-62
2021/08/05 10:36:43;;;;;;;2.78;1.88;;;27.80;86.30;;;;;;4968702;28;20102;-62
2021/08/05 10:39:09;;;;;;;4.10;1.85;;;27.80;86.10;;;;;;4966167;28;20110;-62
2021/08/05 10:41:35;;;;;;;2.08;1.70;;;28.00;85.40;;;;;;4973191;28;20554;-62
2021/08/05 10:44:01;;;;;;;2.75;1.85;;;28.40;82.00;;;;;;4973929;28;20031;-62
2021/08/05 10:46:33;;;;;;;3.17;2.30;;;28.30;82.60;;;;;;4974857;28;20077;-61
2021/08/05 10:49:02;;;;;;;2.67;2.10;;;28.10;82.60;;;;;;4969621;28;20546;-61
2021/08/05 10:51:28;;;;;;;3.30;1.80;;;27.80;82.60;;;;;;4970152;28;20285;-62
2021/08/05 10:53:55;;;;;;;2.83;1.65;;;27.70;82.30;;;;;;4971354;28;20015;-62
2021/08/05 10:56:25;;;;;;;2.70;1.80;;;27.50;81.60;;;;;;4953060;28;20043;-61
2021/08/05 10:59:11;;;;;;;2.15;1.90;;;27.00;85.10;;;;;;4970940;28;20476;-61
2021/08/05 11:01:56;;;;;;;3.13;1.60;;;26.90;86.60;;;;;;4961026;28;20116;-62
2021/08/05 11:04:42;;;;;;;3.47;2.00;;;26.90;84.30;;;;;;4970406;28;20038;-62
2021/08/05 11:07:24;;;;;;;1.70;1.60;;;26.90;83.80;;;;;;4970982;28;20030;-62
2021/08/05 11:09:52;;;;;;;2.28;1.77;;;26.70;85.40;;;;;;4962284;28;20086;-61
2021/08/05 11:12:45;;;;;;;3.97;1.88;;;26.40;87.90;;;;;;4958358;28;20115;-60
2021/08/05 11:15:32;;;;;;;2.53;1.80;;;26.80;86.90;;;;;;4969361;28;20405;-61
2021/08/05 11:18:10;;;;;;;4.25;2.75;;;27.00;85.50;;;;;;4969885;28;20707;-62
2021/08/05 11:20:38;;;;;;;3.22;1.90;;;27.00;84.40;;;;;;4973054;28;20496;-60
2021/08/05 11:23:05;;;;;;;4.57;2.25;;;26.60;82.70;;;;;;4977885;28;20120;-62
2021/08/05 11:25:49;;;;;;;3.65;2.40;;;26.60;84.80;;;;;;4974757;28;20385;-61
2021/08/05 11:28:25;;;;;;;4.53;2.35;;;26.50;84.90;;;;;;4972176;28;20389;-61
2021/08/05 11:30:59;;;;;;;4.88;2.50;;;26.60;85.30;;;;;;4970387;28;20031;-61
2021/08/05 11:33:37;;;;;;;3.67;2.72;;;26.20;85.60;;;;;;4970924;28;20370;-62
2021/08/05 11:38:55;;;;;;;3.67;2.20;;;25.50;87.60;;;;;;4976492;28;20447;-60
2021/08/05 11:41:39;;;;;;;3.55;2.25;;;25.50;87.10;;;;;;4973576;28;20038;-58
2021/08/05 11:44:25;;;;;;;4.03;2.40;;;25.50;86.00;;;;;;4968346;28;20037;-61
2021/08/05 11:47:10;;;;;;;5.38;2.22;;;25.40;88.20;;;;;;4972834;28;20378;-62
2021/08/05 11:49:58;;;;;;;3.53;2.33;;;25.50;88.40;;;;;;4976608;28;20508;-62
2021/08/05 11:52:36;;;;;;;6.32;1.83;;;25.50;88.80;;;;;;4973665;28;20027;-62
2021/08/05 11:55:15;;;;;;;3.47;2.20;;;25.20;89.60;;;;;;4972438;28;20030;-61
2021/08/05 11:57:52;;;;;;;4.95;2.05;;;25.10;88.90;;;;;;4987631;28;20023;-62
2021/08/05 12:00:25;;;;;;;2.95;2.17;;;25.20;90.00;;;;;;4966195;28;20028;-62
2021/08/05 12:02:54;;;;;;;3.05;2.20;;;25.30;90.80;;;;;;4970549;28;20050;-62
2021/08/05 12:05:25;;;;;;;4.53;3.03;;;25.30;90.60;;;;;;4976122;28;20400;-61
2021/08/05 12:07:52;;;;;;;3.50;2.85;;;25.00;90.80;;;;;;4970892;28;20541;-62
2021/08/05 12:10:28;;;;;;;3.10;2.55;;;24.70;90.90;;;;;;4965283;28;20474;-62
2021/08/05 12:13:03;;;;;;;3.97;2.03;;;24.40;91.20;;;;;;4973031;28;20019;-62
2021/08/05 12:15:55;;;;;;;5.25;2.72;;;24.10;91.20;;;;;;4972546;28;20051;-62
2021/08/05 12:18:22;;;;;;;3.33;2.78;;;23.90;92.00;;;;;;4965995;28;20512;-62
2021/08/05 12:20:49;;;;;;;2.83;2.47;;;23.80;92.20;;;;;;4967482;28;20031;-62
2021/08/05 12:23:24;;;;;;;5.07;2.80;;;23.90;92.80;;;;;;4975893;28;20074;-62
2021/08/05 12:26:02;;;;;;;4.38;2.92;;;24.10;92.40;;;;;;4980531;28;20022;-61
2021/08/05 12:28:30;;;;;;;3.40;2.85;;;24.10;93.10;;;;;;4973023;28;20026;-62
2021/08/05 12:30:59;;;;;;;4.97;2.45;;;24.10;92.50;;;;;;4972715;28;20511;-62
2021/08/05 12:33:26;;;;;;;4.75;2.55;;;24.40;92.70;;;;;;4972958;28;20085;-62
2021/08/05 12:36:04;;;;;;;3.90;2.63;;;25.10;92.20;;;;;;4972717;28;20023;-61
2021/08/05 12:38:31;;;;;;;2.88;2.45;;;25.70;90.30;;;;;;4987498;28;20015;-62
2021/08/05 12:40:57;;;;;;;3.67;2.58;;;25.90;88.80;;;;;;4972590;28;20027;-61
2021/08/05 12:43:27;;;;;;;4.10;2.70;;;26.10;89.00;;;;;;4972782;28;20031;-61
2021/08/05 12:45:53;;;;;;;7.65;2.80;;;26.10;90.70;;;;;;4972227;28;20033;-62
2021/08/05 12:48:21;;;;;;;6.28;2.70;;;26.00;91.00;;;;;;4972651;28;20019;-62